createdAt,value
2023-08-12T00:02:05.930Z,4.00
2023-08-12T00:04:34.462Z,5.00
2023-08-12T00:07:03.045Z,4.60
2023-08-12T00:09:31.608Z,4.70
2023-08-12T00:12:00.130Z,4.60
2023-08-12T00:14:28.726Z,4.50
2023-08-12T00:16:57.317Z,4.50
2023-08-12T00:19:26.020Z,3.80
2023-08-12T00:21:54.568Z,4.40
2023-08-12T00:24:23.206Z,4.90
2023-08-12T00:26:51.778Z,5.30
2023-08-12T00:29:20.498Z,6.00
2023-08-12T00:31:49.150Z,4.10
2023-08-12T00:34:18.912Z,4.00
2023-08-12T00:36:47.533Z,4.30
2023-08-12T00:39:16.209Z,4.50
2023-08-12T00:41:44.858Z,4.80
2023-08-12T00:44:13.700Z,4.60
2023-08-12T00:46:44.056Z,5.50
2023-08-12T00:49:14.209Z,5.10
2023-08-12T00:51:46.118Z,4.80
2023-08-12T00:54:17.678Z,4.90
2023-08-12T00:56:46.551Z,4.20
2023-08-12T00:59:16.143Z,5.50
2023-08-12T01:01:45.886Z,4.90
2023-08-12T01:04:14.909Z,5.20
2023-08-12T01:06:43.548Z,5.00
2023-08-12T01:09:12.259Z,4.80
2023-08-12T01:11:48.224Z,4.70
2023-08-12T01:14:22.120Z,4.70
2023-08-12T01:16:57.942Z,4.70
2023-08-12T01:19:38.503Z,4.70
2023-08-12T01:22:11.993Z,4.50
2023-08-12T01:24:44.734Z,4.80
2023-08-12T01:27:14.761Z,4.70
2023-08-12T01:29:46.813Z,4.00
2023-08-12T01:32:36.051Z,4.90
2023-08-12T01:35:38.860Z,5.90
2023-08-12T01:38:09.605Z,6.40
2023-08-12T01:40:40.454Z,5.40
2023-08-12T01:43:09.530Z,5.30
2023-08-12T01:45:38.400Z,5.10
2023-08-12T01:48:07.997Z,5.00
2023-08-12T01:50:36.568Z,5.30
2023-08-12T01:53:05.797Z,5.10
2023-08-12T01:55:34.312Z,5.60
2023-08-12T01:58:02.877Z,5.80
2023-08-12T02:00:32.260Z,6.00
2023-08-12T02:03:00.887Z,5.00
2023-08-12T02:05:29.822Z,4.80
2023-08-12T02:07:58.487Z,5.90
2023-08-12T02:10:27.234Z,5.00
2023-08-12T02:12:56.070Z,5.50
2023-08-12T02:15:24.800Z,5.70
2023-08-12T02:17:53.438Z,6.10
2023-08-12T02:20:22.201Z,4.80
2023-08-12T02:22:50.740Z,5.30
2023-08-12T02:25:19.286Z,5.20
2023-08-12T02:27:47.871Z,6.30
2023-08-12T02:30:16.446Z,5.40
2023-08-12T02:32:45.312Z,5.30
2023-08-12T02:35:14.006Z,4.70
2023-08-12T02:37:42.545Z,4.20
2023-08-12T02:40:12.059Z,5.10
2023-08-12T02:42:40.747Z,5.20
2023-08-12T02:45:09.793Z,6.00
2023-08-12T02:47:38.773Z,5.60
2023-08-12T02:50:08.850Z,5.30
2023-08-12T02:52:37.544Z,5.00
2023-08-12T02:55:06.459Z,5.20
2023-08-12T02:57:35.060Z,5.50
2023-08-12T03:00:05.392Z,5.70
2023-08-12T03:02:34.054Z,5.60
2023-08-12T03:05:02.626Z,5.70
2023-08-12T03:07:31.329Z,5.70
2023-08-12T03:10:00.205Z,5.60
2023-08-12T03:12:28.866Z,5.00
2023-08-12T03:14:57.617Z,5.00
2023-08-12T03:17:26.596Z,4.30
2023-08-12T03:19:55.624Z,4.80
2023-08-12T03:22:24.240Z,4.60
2023-08-12T03:24:52.869Z,5.60
2023-08-12T03:27:21.501Z,5.20
2023-08-12T03:29:50.895Z,6.00
2023-08-12T03:32:19.519Z,5.20
2023-08-12T03:34:48.291Z,5.20
2023-08-12T03:37:17.073Z,5.20
2023-08-12T03:39:45.723Z,6.00
2023-08-12T03:42:14.306Z,5.70
2023-08-12T03:44:42.869Z,6.50
2023-08-12T03:47:12.232Z,5.70
2023-08-12T03:49:41.174Z,5.50
2023-08-12T03:52:09.960Z,6.20
2023-08-12T03:54:38.661Z,7.80
2023-08-12T03:57:07.295Z,7.10
2023-08-12T03:59:36.200Z,7.20
2023-08-12T04:02:05.369Z,6.00
2023-08-12T04:04:34.087Z,6.40
2023-08-12T04:07:02.682Z,6.70
2023-08-12T04:09:31.345Z,5.60
2023-08-12T04:11:59.960Z,5.60
2023-08-12T04:14:28.507Z,5.00
2023-08-12T04:16:58.917Z,5.20
2023-08-12T04:19:27.624Z,5.60
2023-08-12T04:21:56.183Z,5.70
2023-08-12T04:24:24.767Z,5.40
2023-08-12T04:26:53.285Z,5.90
2023-08-12T04:29:21.842Z,5.40
2023-08-12T04:31:50.444Z,5.00
2023-08-12T04:34:19.051Z,6.00
2023-08-12T04:36:47.753Z,4.70
2023-08-12T04:39:16.676Z,5.20
2023-08-12T04:41:45.460Z,4.20
2023-08-12T04:44:14.131Z,4.70
2023-08-12T04:46:43.681Z,3.60
2023-08-12T04:49:12.329Z,5.10
2023-08-12T04:51:40.974Z,4.30
2023-08-12T04:54:09.586Z,4.30
2023-08-12T04:56:38.312Z,4.40
2023-08-12T04:59:06.763Z,4.00
2023-08-12T05:01:35.388Z,4.70
2023-08-12T05:04:04.236Z,4.30
2023-08-12T05:06:32.782Z,4.70
2023-08-12T05:09:01.405Z,4.70
2023-08-12T05:11:30.564Z,4.70
2023-08-12T05:13:59.912Z,4.50
2023-08-12T05:16:28.616Z,4.10
2023-08-12T05:18:57.205Z,4.10
2023-08-12T05:21:26.132Z,4.30
2023-08-12T05:23:54.923Z,4.30
2023-08-12T05:26:23.542Z,4.80
2023-08-12T05:28:52.130Z,4.60
2023-08-12T05:31:20.622Z,3.80
2023-08-12T05:33:49.289Z,5.70
2023-08-12T05:36:17.903Z,4.40
2023-08-12T05:38:46.505Z,4.00
2023-08-12T05:41:15.110Z,4.10
2023-08-12T05:43:45.025Z,3.80
2023-08-12T05:46:13.833Z,4.40
2023-08-12T05:48:42.434Z,3.50
2023-08-12T05:51:11.722Z,4.20
2023-08-12T05:53:40.247Z,3.90
2023-08-12T05:56:08.904Z,4.30
2023-08-12T05:58:37.546Z,4.20
2023-08-12T06:01:06.179Z,4.10
2023-08-12T06:03:34.830Z,4.30
2023-08-12T06:06:04.632Z,3.70
2023-08-12T06:08:33.183Z,4.00
2023-08-12T06:11:01.739Z,4.40
2023-08-12T06:13:30.256Z,3.90
2023-08-12T06:15:58.941Z,4.30
2023-08-12T06:18:27.857Z,3.60
2023-08-12T06:20:56.551Z,4.40
2023-08-12T06:23:27.676Z,4.30
2023-08-12T06:25:56.480Z,3.50
2023-08-12T06:28:25.055Z,4.20
2023-08-12T06:30:54.057Z,4.40
2023-08-12T06:33:22.645Z,4.40
2023-08-12T06:35:52.712Z,4.40
2023-08-12T06:38:21.291Z,3.40
2023-08-12T06:40:49.913Z,3.30
2023-08-12T06:43:18.526Z,3.90
2023-08-12T06:45:47.133Z,3.40
2023-08-12T06:48:15.771Z,3.30
2023-08-12T06:50:44.949Z,3.50
2023-08-12T06:53:13.539Z,3.80
2023-08-12T06:55:46.972Z,4.10
2023-08-12T06:58:18.574Z,3.90
2023-08-12T07:00:47.030Z,3.60
2023-08-12T07:03:15.837Z,4.00
2023-08-12T07:05:44.505Z,3.70
2023-08-12T07:08:13.019Z,3.60
2023-08-12T07:10:42.790Z,3.40
2023-08-12T07:13:11.351Z,3.20
2023-08-12T07:15:40.011Z,3.00
2023-08-12T07:18:08.679Z,3.10
2023-08-12T07:20:37.282Z,3.50
2023-08-12T07:23:05.767Z,3.00
2023-08-12T07:25:34.393Z,3.30
2023-08-12T07:28:03.031Z,3.20
2023-08-12T07:30:31.668Z,2.70
2023-08-12T07:33:00.243Z,3.00
2023-08-12T07:35:28.953Z,2.60
2023-08-12T07:37:57.681Z,2.90
2023-08-12T07:40:26.267Z,2.80
2023-08-12T07:42:54.889Z,2.90
2023-08-12T07:45:23.666Z,2.80
2023-08-12T07:47:52.436Z,2.90
2023-08-12T07:50:21.263Z,2.90
2023-08-12T07:52:49.695Z,3.20
2023-08-12T07:55:18.326Z,2.50
2023-08-12T07:57:47.131Z,2.70
2023-08-12T08:00:16.146Z,3.10
2023-08-12T08:02:44.825Z,2.50
2023-08-12T08:05:13.584Z,2.60
2023-08-12T08:07:42.119Z,2.60
2023-08-12T08:10:11.767Z,2.30
2023-08-12T08:12:40.404Z,2.10
2023-08-12T08:15:09.361Z,2.50
2023-08-12T08:17:39.336Z,2.20
2023-08-12T08:20:09.435Z,2.60
2023-08-12T08:22:38.466Z,2.60
2023-08-12T08:25:08.060Z,2.70
2023-08-12T08:27:36.744Z,2.50
2023-08-12T08:30:06.696Z,2.50
2023-08-12T08:32:35.222Z,2.30
2023-08-12T08:35:04.246Z,2.30
2023-08-12T08:37:32.863Z,2.60
2023-08-12T08:40:01.423Z,2.30
2023-08-12T08:42:31.038Z,2.00
2023-08-12T08:45:02.989Z,2.30
2023-08-12T08:47:32.297Z,1.90
2023-08-12T08:50:01.915Z,2.30
2023-08-12T08:52:30.873Z,2.10
2023-08-12T08:55:04.253Z,1.80
2023-08-12T08:57:45.989Z,2.20
2023-08-12T09:00:19.160Z,2.30
2023-08-12T09:02:49.789Z,2.30
2023-08-12T09:05:21.944Z,2.30
2023-08-12T09:07:52.468Z,1.80
2023-08-12T09:10:22.621Z,2.20
2023-08-12T09:12:54.141Z,2.10
2023-08-12T09:15:22.952Z,2.10
2023-08-12T09:17:51.520Z,1.90
2023-08-12T09:20:20.278Z,1.90
2023-08-12T09:22:57.478Z,2.20
2023-08-12T09:25:28.950Z,1.80
2023-08-12T09:28:00.636Z,2.00
2023-08-12T09:30:32.708Z,2.30
2023-08-12T09:33:08.574Z,1.60
2023-08-12T09:35:38.017Z,1.90
2023-08-12T09:38:09.471Z,2.20
2023-08-12T09:40:38.813Z,1.90
2023-08-12T09:43:08.091Z,2.00
2023-08-12T09:45:37.689Z,1.90
2023-08-12T09:48:09.212Z,1.60
2023-08-12T09:50:38.479Z,1.90
2023-08-12T09:53:07.089Z,2.00
2023-08-12T09:55:37.745Z,2.10
2023-08-12T09:58:09.287Z,1.80
2023-08-12T10:00:38.409Z,2.00
2023-08-12T10:03:07.800Z,1.80
2023-08-12T10:05:36.569Z,2.00
2023-08-12T10:08:08.837Z,2.20
2023-08-12T10:10:37.886Z,2.30
2023-08-12T10:13:08.827Z,1.70
2023-08-12T10:15:38.384Z,2.10
2023-08-12T10:18:11.795Z,1.90
2023-08-12T10:20:41.626Z,1.70
2023-08-12T10:23:16.468Z,1.90
2023-08-12T10:25:46.498Z,1.40
2023-08-12T10:28:15.179Z,2.20
2023-08-12T10:30:46.526Z,1.80
2023-08-12T10:33:19.830Z,2.00
2023-08-12T10:35:50.311Z,2.30
2023-08-12T10:38:21.195Z,1.40
2023-08-12T10:40:51.492Z,1.60
2023-08-12T10:43:23.069Z,1.80
2023-08-12T10:45:54.865Z,1.60
2023-08-12T10:48:26.979Z,1.40
2023-08-12T10:51:00.416Z,1.40
2023-08-12T10:53:33.371Z,1.40
2023-08-12T10:56:06.142Z,1.80
2023-08-12T10:58:48.734Z,1.60
2023-08-12T11:01:21.198Z,1.60
2023-08-12T11:03:50.642Z,1.90
2023-08-12T11:06:20.947Z,1.60
2023-08-12T11:08:57.472Z,1.50
2023-08-12T11:11:26.878Z,1.70
2023-08-12T11:13:58.152Z,2.50
2023-08-12T11:16:37.200Z,2.30
2023-08-12T11:19:05.993Z,2.20
2023-08-12T11:21:37.790Z,1.80
2023-08-12T11:24:07.175Z,1.70
2023-08-12T11:26:35.772Z,1.60
2023-08-12T11:29:11.395Z,1.60
2023-08-12T11:31:40.517Z,1.50
2023-08-12T11:34:09.068Z,1.60
2023-08-12T11:36:37.696Z,1.50
2023-08-12T11:39:06.518Z,1.30
2023-08-12T11:41:38.555Z,1.10
2023-08-12T11:44:07.168Z,1.60
2023-08-12T11:46:35.681Z,1.60
2023-08-12T11:49:04.568Z,1.50
2023-08-12T11:51:33.879Z,1.50
2023-08-12T11:54:03.006Z,3.60
2023-08-12T11:56:31.771Z,10.30
2023-08-12T11:59:00.963Z,2.20
2023-08-12T12:01:29.878Z,26.00
2023-08-12T12:04:02.422Z,9.60
2023-08-12T12:06:38.330Z,2.60
2023-08-12T12:09:12.518Z,1.40
2023-08-12T12:11:42.955Z,1.70
2023-08-12T12:14:12.233Z,1.30
2023-08-12T12:16:46.218Z,1.30
2023-08-12T12:19:24.845Z,1.20
2023-08-12T12:21:54.776Z,1.30
2023-08-12T12:24:23.313Z,1.50
2023-08-12T12:26:51.938Z,1.80
2023-08-12T12:29:20.514Z,1.50
2023-08-12T12:31:49.091Z,1.60
2023-08-12T12:34:18.869Z,1.20
2023-08-12T12:36:47.487Z,1.20
2023-08-12T12:39:15.993Z,1.30
2023-08-12T12:41:46.264Z,1.20
2023-08-12T12:44:16.957Z,1.00
2023-08-12T12:46:45.560Z,1.30
2023-08-12T12:49:14.201Z,1.40
2023-08-12T12:51:42.811Z,1.20
2023-08-12T12:54:11.371Z,1.10
2023-08-12T12:56:40.066Z,1.30
2023-08-12T12:59:08.701Z,1.30
2023-08-12T13:01:37.671Z,1.40
2023-08-12T13:04:06.652Z,1.60
2023-08-12T13:06:38.286Z,1.30
2023-08-12T13:09:07.614Z,1.60
2023-08-12T13:11:36.475Z,1.70
2023-08-12T13:14:05.583Z,1.50
2023-08-12T13:16:34.326Z,1.50
2023-08-12T13:19:03.323Z,1.60
2023-08-12T13:21:32.972Z,1.60
2023-08-12T13:24:02.824Z,1.50
2023-08-12T13:26:31.439Z,1.60
2023-08-12T13:29:00.062Z,1.30
2023-08-12T13:31:28.715Z,1.50
2023-08-12T13:33:57.384Z,1.50
2023-08-12T13:36:26.067Z,2.00
2023-08-12T13:38:54.873Z,1.60
2023-08-12T13:41:23.536Z,1.40
2023-08-12T13:43:52.224Z,1.20
2023-08-12T13:46:20.766Z,1.30
2023-08-12T13:48:49.372Z,1.40
2023-08-12T13:51:18.077Z,1.60
2023-08-12T13:53:46.740Z,1.20
2023-08-12T13:56:16.076Z,1.20
2023-08-12T13:58:44.671Z,1.50
2023-08-12T14:01:13.671Z,1.40
2023-08-12T14:03:42.291Z,1.30
2023-08-12T14:06:11.138Z,1.20
2023-08-12T14:08:39.883Z,1.60
2023-08-12T14:11:08.491Z,1.40
2023-08-12T14:13:37.239Z,0.90
2023-08-12T14:16:06.012Z,1.00
2023-08-12T14:18:34.507Z,1.00
2023-08-12T14:21:03.093Z,1.00
2023-08-12T14:23:31.704Z,1.10
2023-08-12T14:26:00.361Z,1.00
2023-08-12T14:28:29.008Z,1.10
2023-08-12T14:30:57.758Z,1.30
2023-08-12T14:33:27.301Z,1.10
2023-08-12T14:35:59.169Z,1.00
2023-08-12T14:38:27.813Z,0.90
2023-08-12T14:40:56.509Z,1.30
2023-08-12T14:43:25.127Z,1.60
2023-08-12T14:45:53.716Z,1.20
2023-08-12T14:48:22.335Z,1.10
2023-08-12T14:50:51.098Z,1.40
2023-08-12T14:53:19.649Z,1.20
2023-08-12T14:55:49.237Z,1.40
2023-08-12T14:58:18.164Z,1.10
2023-08-12T15:00:48.921Z,1.40
2023-08-12T15:03:17.620Z,1.00
2023-08-12T15:05:46.271Z,1.20
2023-08-12T15:08:14.912Z,1.20
2023-08-12T15:10:43.616Z,1.40
2023-08-12T15:13:12.151Z,1.10
2023-08-12T15:15:40.709Z,1.00
2023-08-12T15:18:09.207Z,1.10
2023-08-12T15:20:37.867Z,1.20
2023-08-12T15:23:06.428Z,1.40
2023-08-12T15:25:35.068Z,1.70
2023-08-12T15:28:04.281Z,1.20
2023-08-12T15:30:32.910Z,0.90
2023-08-12T15:33:01.460Z,1.20
2023-08-12T15:35:30.076Z,1.10
2023-08-12T15:37:58.924Z,1.20
2023-08-12T15:40:27.640Z,1.30
2023-08-12T15:42:56.235Z,1.50
2023-08-12T15:45:25.093Z,1.30
2023-08-12T15:47:55.424Z,1.10
2023-08-12T15:50:24.145Z,1.00
2023-08-12T15:52:52.751Z,1.10
2023-08-12T15:55:21.289Z,1.10
2023-08-12T15:57:50.208Z,1.10
2023-08-12T16:00:19.027Z,1.00
2023-08-12T16:02:47.683Z,0.90
2023-08-12T16:05:16.324Z,0.90
2023-08-12T16:07:45.044Z,1.70
2023-08-12T16:10:13.671Z,1.10
2023-08-12T16:12:42.243Z,1.20
2023-08-12T16:15:11.022Z,1.30
2023-08-12T16:17:39.712Z,1.40
2023-08-12T16:20:09.058Z,0.90
2023-08-12T16:22:37.665Z,1.10
2023-08-12T16:25:07.225Z,0.90
2023-08-12T16:27:35.900Z,1.40
2023-08-12T16:30:06.086Z,1.20
2023-08-12T16:32:35.010Z,1.10
2023-08-12T16:35:04.088Z,1.10
2023-08-12T16:37:32.663Z,1.10
2023-08-12T16:40:01.365Z,1.40
2023-08-12T16:42:30.114Z,1.40
2023-08-12T16:44:58.794Z,1.10
2023-08-12T16:47:28.842Z,1.30
2023-08-12T16:49:59.292Z,1.40
2023-08-12T16:52:28.063Z,1.30
2023-08-12T16:54:56.910Z,1.60
2023-08-12T16:57:25.997Z,1.40
2023-08-12T16:59:54.646Z,1.50
2023-08-12T17:02:23.244Z,1.30
2023-08-12T17:04:52.471Z,1.50
2023-08-12T17:07:21.255Z,1.60
2023-08-12T17:09:49.933Z,1.50
2023-08-12T17:12:18.594Z,1.50
2023-08-12T17:14:47.280Z,1.80
2023-08-12T17:17:15.873Z,1.50
2023-08-12T17:19:44.573Z,1.70
2023-08-12T17:22:13.285Z,1.60
2023-08-12T17:24:42.525Z,2.20
2023-08-12T17:27:11.811Z,2.60
2023-08-12T17:29:40.497Z,2.30
2023-08-12T17:32:09.159Z,3.00
2023-08-12T17:34:37.876Z,4.10
2023-08-12T17:37:06.584Z,3.50
2023-08-12T17:39:36.654Z,4.40
2023-08-12T17:42:05.706Z,5.00
2023-08-12T17:44:34.476Z,4.90
2023-08-12T17:47:03.556Z,4.30
2023-08-12T17:49:32.517Z,4.30
2023-08-12T17:52:02.439Z,3.20
2023-08-12T17:54:31.230Z,3.20
2023-08-12T17:56:59.958Z,2.80
2023-08-12T17:59:28.860Z,2.30
2023-08-12T18:01:57.469Z,2.60
2023-08-12T18:04:26.262Z,2.70
2023-08-12T18:06:54.818Z,2.70
2023-08-12T18:09:23.587Z,2.50
2023-08-12T18:11:52.725Z,2.20
2023-08-12T18:14:22.644Z,2.20
2023-08-12T18:16:51.359Z,1.90
2023-08-12T18:19:20.512Z,2.20
2023-08-12T18:21:49.205Z,2.00
2023-08-12T18:24:18.162Z,2.00
2023-08-12T18:26:47.072Z,1.80
2023-08-12T18:29:15.622Z,2.10
2023-08-12T18:31:44.320Z,1.90
2023-08-12T18:34:13.600Z,1.90
2023-08-12T18:36:42.674Z,2.40
2023-08-12T18:39:11.267Z,1.70
2023-08-12T18:41:39.853Z,2.00
2023-08-12T18:44:08.435Z,2.40
2023-08-12T18:46:37.110Z,2.10
2023-08-12T18:49:05.805Z,1.70
2023-08-12T18:51:34.424Z,1.60
2023-08-12T18:54:04.793Z,1.70
2023-08-12T18:56:34.035Z,1.90
2023-08-12T18:59:02.703Z,1.50
2023-08-12T19:01:31.458Z,1.80
2023-08-12T19:03:59.956Z,1.70
2023-08-12T19:06:28.628Z,1.60
2023-08-12T19:08:57.216Z,1.70
2023-08-12T19:11:25.808Z,1.60
2023-08-12T19:13:55.131Z,1.80
2023-08-12T19:16:23.713Z,1.70
2023-08-12T19:18:52.417Z,1.40
2023-08-12T19:21:20.938Z,2.10
2023-08-12T19:23:51.719Z,1.70
2023-08-12T19:26:21.082Z,1.80
2023-08-12T19:28:49.799Z,1.80
2023-08-12T19:31:19.170Z,1.70
2023-08-12T19:33:47.835Z,1.80
2023-08-12T19:36:16.432Z,1.70
2023-08-12T19:38:45.338Z,1.70
2023-08-12T19:41:14.421Z,1.50
2023-08-12T19:43:43.074Z,1.40
2023-08-12T19:46:12.376Z,1.40
2023-08-12T19:48:40.929Z,1.40
2023-08-12T19:51:09.662Z,1.70
2023-08-12T19:53:38.209Z,1.70
2023-08-12T19:56:06.872Z,1.70
2023-08-12T19:58:35.597Z,1.70
2023-08-12T20:01:04.359Z,2.20
2023-08-12T20:03:33.214Z,1.70
2023-08-12T20:06:01.954Z,1.40
2023-08-12T20:08:31.032Z,1.60
2023-08-12T20:10:59.699Z,1.80
2023-08-12T20:13:28.352Z,2.10
2023-08-12T20:15:59.212Z,2.10
2023-08-12T20:18:28.277Z,2.10
2023-08-12T20:20:56.894Z,1.90
2023-08-12T20:23:25.472Z,2.50
2023-08-12T20:25:54.192Z,2.00
2023-08-12T20:28:22.757Z,2.10
2023-08-12T20:30:51.375Z,2.10
2023-08-12T20:33:20.051Z,2.10
2023-08-12T20:35:48.903Z,1.90
2023-08-12T20:38:19.477Z,2.20
2023-08-12T20:40:48.241Z,2.90
2023-08-12T20:43:17.550Z,2.40
2023-08-12T20:45:46.150Z,3.30
2023-08-12T20:48:14.903Z,2.90
2023-08-12T20:50:44.373Z,2.50
2023-08-12T20:53:13.069Z,3.00
2023-08-12T20:55:41.730Z,2.90
2023-08-12T20:58:10.293Z,3.00
2023-08-12T21:00:40.888Z,3.00
2023-08-12T21:03:10.536Z,2.60
2023-08-12T21:05:39.699Z,3.00
2023-08-12T21:08:08.716Z,3.10
2023-08-12T21:10:37.447Z,2.60
2023-08-12T21:13:06.070Z,3.00
2023-08-12T21:15:34.698Z,2.80
2023-08-12T21:18:05.729Z,3.20
2023-08-12T21:20:34.428Z,3.20
2023-08-12T21:23:03.768Z,2.70
2023-08-12T21:25:32.385Z,3.10
2023-08-12T21:28:01.073Z,2.90
2023-08-12T21:30:29.884Z,2.90
2023-08-12T21:32:58.912Z,3.10
2023-08-12T21:35:27.574Z,2.70
2023-08-12T21:37:57.818Z,3.30
2023-08-12T21:40:26.473Z,3.80
2023-08-12T21:42:55.136Z,3.60
2023-08-12T21:45:23.724Z,3.90
2023-08-12T21:47:52.491Z,3.10
2023-08-12T21:50:21.330Z,3.30
2023-08-12T21:52:49.984Z,3.00
2023-08-12T21:55:18.616Z,2.80
2023-08-12T21:57:47.164Z,3.60
2023-08-12T22:00:16.211Z,3.70
2023-08-12T22:02:47.596Z,3.90
2023-08-12T22:05:17.369Z,3.60
2023-08-12T22:07:46.108Z,3.70
2023-08-12T22:10:14.690Z,3.90
2023-08-12T22:12:43.266Z,3.40
2023-08-12T22:15:12.655Z,3.90
2023-08-12T22:17:43.432Z,4.50
2023-08-12T22:20:15.052Z,4.20
2023-08-12T22:22:43.690Z,4.50
2023-08-12T22:25:12.431Z,4.10
2023-08-12T22:27:41.271Z,4.00
2023-08-12T22:30:10.229Z,4.00
2023-08-12T22:32:38.784Z,3.40
2023-08-12T22:35:09.291Z,3.90
2023-08-12T22:37:38.386Z,3.80
2023-08-12T22:40:08.025Z,4.50
2023-08-12T22:42:36.593Z,3.70
2023-08-12T22:45:08.703Z,4.30
2023-08-12T22:47:37.318Z,4.40
2023-08-12T22:50:07.571Z,4.30
2023-08-12T22:52:36.161Z,4.60
2023-08-12T22:55:05.852Z,4.40
2023-08-12T22:57:34.381Z,4.50
2023-08-12T23:00:04.730Z,4.10
2023-08-12T23:02:33.413Z,4.20
2023-08-12T23:05:01.987Z,4.70
2023-08-12T23:07:30.502Z,4.30
2023-08-12T23:10:00.111Z,4.90
2023-08-12T23:12:29.154Z,5.40
2023-08-12T23:14:57.790Z,5.20
2023-08-12T23:17:26.295Z,5.20
2023-08-12T23:19:54.860Z,4.30
2023-08-12T23:22:23.504Z,4.50
2023-08-12T23:24:52.063Z,5.10
2023-08-12T23:27:20.609Z,5.30
2023-08-12T23:29:49.253Z,4.80
2023-08-12T23:32:17.958Z,4.90
2023-08-12T23:34:46.757Z,5.10
2023-08-12T23:37:15.413Z,5.70
2023-08-12T23:39:44.409Z,5.10
2023-08-12T23:42:14.011Z,5.10
2023-08-12T23:44:42.808Z,4.60
2023-08-12T23:47:11.844Z,4.50
2023-08-12T23:49:40.349Z,4.10
2023-08-12T23:52:08.916Z,4.50
2023-08-12T23:54:37.414Z,4.20
2023-08-12T23:57:06.018Z,4.60
2023-08-12T23:59:34.690Z,4.50
